Time;durP1;ratioP1;P1;durP2;ratioP2;P2;SDS_P1;SDS_P2;PMS_P1;PMS_P2;Temp;Humidity;BMP_temperature;BMP_pressure;BME280_temperature;BME280_humidity;BME280_pressure;Samples;Min_cycle;Max_cycle;Signal;HPM_P1;HPM_P2
2021/12/23 00:00:07;;;;;;;0.70;0.70;;;;;;;-4.65;85.05;97191.47;29375;309;63009;-68
2021/12/23 00:00:38;;;;;;;0.70;0.70;;;;;;;-4.65;84.72;97196.78;29375;205;63004;-66
2021/12/23 00:01:09;;;;;;;0.70;0.70;;;;;;;-4.70;85.09;97194.69;29373;220;64013;-66
2021/12/23 00:01:42;;;;;;;0.80;0.80;;;;;;;-4.70;84.94;97199.16;29375;260;63004;-67
2021/12/23 00:02:14;;;;;;;0.80;0.80;;;;;;;-4.68;85.26;97197.97;29375;213;63008;-65
2021/12/23 00:02:45;;;;;;;3.95;3.78;;;;;;;-4.67;85.18;97198.78;29375;231;63004;-65
2021/12/23 00:03:16;;;;;;;0.70;0.70;;;;;;;-4.64;85.11;97198.41;29375;202;63009;-67
2021/12/23 00:03:48;;;;;;;0.70;0.70;;;;;;;-4.65;84.82;97194.13;29375;199;63005;-64
2021/12/23 00:04:19;;;;;;;0.70;0.70;;;;;;;-4.65;84.72;97191.47;29372;204;64014;-65
2021/12/23 00:04:50;;;;;;;1.00;1.00;;;;;;;-4.69;85.06;97200.81;29373;225;63005;-64
2021/12/23 00:05:21;;;;;;;0.70;0.70;;;;;;;-4.66;84.82;97193.31;29373;208;63009;-58
2021/12/23 00:05:53;;;;;;;0.70;0.70;;;;;;;-4.62;84.80;97196.41;29371;198;64009;-66
2021/12/23 00:06:25;;;;;;;0.70;0.70;;;;;;;-4.63;84.89;97189.47;29373;232;63009;-64
2021/12/23 00:06:56;;;;;;;0.70;0.70;;;;;;;-4.64;84.88;97193.12;29373;208;63005;-65
2021/12/23 00:07:28;;;;;;;0.70;0.70;;;;;;;-4.64;84.68;97193.12;29373;204;63009;-65
2021/12/23 00:08:00;;;;;;;0.75;0.75;;;;;;;-4.64;84.62;97187.81;29373;226;63004;-65
2021/12/23 00:08:31;;;;;;;3.55;3.42;;;;;;;-4.67;84.88;97190.84;29373;314;63009;-58
2021/12/23 00:09:04;;;;;;;0.70;0.70;;;;;;;-4.65;84.90;97186.19;29373;210;63004;-59
2021/12/23 00:10:32;;;;;;;0.80;0.80;;;;;;;-4.68;84.76;97176.78;29373;334;63005;-65
2021/12/23 00:11:03;;;;;;;0.75;0.75;;;;;;;-4.67;84.94;97177.59;29373;245;63009;-66
2021/12/23 00:11:35;;;;;;;0.70;0.70;;;;;;;-4.62;84.63;97180.50;29373;216;63005;-67
2021/12/23 00:12:07;;;;;;;0.70;0.70;;;;;;;-4.63;84.64;97181.53;29373;219;63009;-65
2021/12/23 00:12:44;;;;;;;0.70;0.70;;;;;;;-4.63;84.49;97173.56;29373;224;63005;-64
2021/12/23 00:13:16;;;;;;;0.70;0.70;;;;;;;-4.64;84.70;97171.94;29371;209;64013;-60
2021/12/23 00:14:00;;;;;;;3.55;3.35;;;;;;;-4.62;84.56;97169.91;29373;272;63005;-59
2021/12/23 00:14:34;;;;;;;0.70;0.70;;;;;;;-4.64;84.77;97177.22;29373;222;63009;-66
2021/12/23 00:15:15;;;;;;;0.90;0.90;;;;;;;-4.64;84.52;97166.63;29373;296;63004;-67
2021/12/23 00:16:55;;;;;;;0.80;0.80;;;;;;;-4.69;84.55;97167.22;29373;386;63004;-59
2021/12/23 00:17:54;;;;;;;0.70;0.70;;;;;;;-4.71;84.92;97169.22;29373;225;63026;-68
2021/12/23 00:18:44;;;;;;;0.90;0.90;;;;;;;-4.76;85.15;97169.78;29371;217;64009;-66
2021/12/23 00:23:47;;;;;;;0.70;0.70;;;;;;;-4.69;84.69;97169.03;29373;203;63004;-65
2021/12/23 00:24:18;;;;;;;0.70;0.70;;;;;;;-4.67;84.53;97173.13;29373;208;63009;-64
2021/12/23 00:24:50;;;;;;;0.70;0.70;;;;;;;-4.65;84.42;97175.59;29373;264;63009;-65
2021/12/23 00:25:21;;;;;;;0.70;0.70;;;;;;;-4.65;84.60;97172.94;29371;367;64013;-65
2021/12/23 00:25:56;;;;;;;0.80;0.80;;;;;;;-4.67;84.38;97167.03;29373;289;63005;-64
2021/12/23 00:26:29;;;;;;;0.70;0.70;;;;;;;-4.67;84.74;97174.97;29373;324;63023;-65
2021/12/23 00:27:01;;;;;;;0.70;0.70;;;;;;;-4.65;84.57;97170.28;29373;226;63005;-64
2021/12/23 00:27:33;;;;;;;0.70;0.70;;;;;;;-4.66;84.66;97168.66;29373;228;63009;-66
2021/12/23 00:28:05;;;;;;;0.70;0.70;;;;;;;-4.66;84.57;97172.13;29373;243;63005;-66
2021/12/23 00:28:37;;;;;;;0.70;0.70;;;;;;;-4.68;84.42;97175.97;29371;216;64013;-63
2021/12/23 00:29:08;;;;;;;0.70;0.70;;;;;;;-4.68;84.53;97162.72;29373;206;63005;-66
2021/12/23 00:29:40;;;;;;;0.70;0.70;;;;;;;-4.68;84.39;97166.19;29373;216;63009;-64
2021/12/23 00:30:12;;;;;;;0.70;0.70;;;;;;;-4.68;84.28;97170.69;29373;211;63004;-65
2021/12/23 00:30:43;;;;;;;0.70;0.70;;;;;;;-4.68;84.44;97165.37;29373;218;63009;-65
2021/12/23 00:31:16;;;;;;;0.70;0.70;;;;;;;-4.64;84.50;97166.63;29373;219;63004;-65
2021/12/23 00:31:47;;;;;;;0.70;0.70;;;;;;;-4.63;84.42;97158.50;29373;213;63012;-66
2021/12/23 00:32:18;;;;;;;0.70;0.70;;;;;;;-4.63;84.13;97161.16;29373;319;63004;-66
2021/12/23 00:32:49;;;;;;;0.70;0.70;;;;;;;-4.65;84.30;97165.81;29372;276;63008;-67
2021/12/23 00:33:22;;;;;;;0.70;0.70;;;;;;;-4.67;84.46;97170.50;29373;264;63005;-66
2021/12/23 00:33:54;;;;;;;1.23;1.23;;;;;;;-4.67;84.26;97167.84;29371;216;64014;-66
2021/12/23 00:34:26;;;;;;;0.70;0.70;;;;;;;-4.68;84.20;97168.03;29373;246;63008;-66
2021/12/23 00:34:57;;;;;;;0.70;0.70;;;;;;;-4.70;84.46;97162.09;29373;271;63009;-67
2021/12/23 00:35:29;;;;;;;0.70;0.70;;;;;;;-4.72;84.19;97160.47;29373;233;63005;-65
2021/12/23 00:36:00;;;;;;;0.70;0.70;;;;;;;-4.74;84.60;97162.47;29373;239;63009;-66
2021/12/23 00:36:31;;;;;;;0.70;0.70;;;;;;;-4.74;84.59;97162.47;29373;361;63005;-65
2021/12/23 00:37:06;;;;;;;0.70;0.70;;;;;;;-4.70;84.39;97162.09;29371;324;64013;-66
2021/12/23 00:37:44;;;;;;;0.70;0.70;;;;;;;-4.69;84.31;97172.50;29373;222;63004;-66
2021/12/23 00:38:29;;;;;;;0.70;0.70;;;;;;;-4.67;84.63;97169.66;29373;227;63009;-64
2021/12/23 00:39:02;;;;;;;0.70;0.70;;;;;;;-4.70;84.15;97167.41;29373;311;63011;-66
2021/12/23 00:39:33;;;;;;;0.70;0.70;;;;;;;-4.73;84.51;97161.47;29373;208;63009;-65
2021/12/23 00:40:08;;;;;;;0.70;0.70;;;;;;;-4.68;84.26;97152.16;29373;196;63004;-65
2021/12/23 00:40:39;;;;;;;0.70;0.70;;;;;;;-4.70;84.20;97154.16;29373;213;63009;-64
2021/12/23 00:41:10;;;;;;;0.70;0.70;;;;;;;-4.70;84.17;97156.81;29373;375;63005;-65
2021/12/23 00:41:44;;;;;;;0.70;0.70;;;;;;;-4.74;84.22;97165.13;29371;216;64014;-65
2021/12/23 00:42:15;;;;;;;0.70;0.70;;;;;;;-4.75;84.34;97160.03;29373;292;63005;-64
2021/12/23 00:42:47;;;;;;;0.70;0.70;;;;;;;-4.74;84.33;97153.72;29373;206;63009;-65
2021/12/23 00:43:19;;;;;;;0.70;0.70;;;;;;;-4.75;84.61;97155.53;29373;210;63005;-67
2021/12/23 00:43:50;;;;;;;0.70;0.70;;;;;;;-4.73;84.57;97156.19;29373;196;63009;-67
2021/12/23 00:44:21;;;;;;;0.80;0.80;;;;;;;-4.73;84.41;97153.53;29372;227;63009;-64
2021/12/23 00:44:52;;;;;;;0.70;0.70;;;;;;;-4.67;84.25;97151.13;29373;227;63009;-65
2021/12/23 00:45:24;;;;;;;0.70;0.70;;;;;;;-4.67;84.33;97143.19;29373;280;63004;-66
2021/12/23 00:45:56;;;;;;;0.70;0.70;;;;;;;-4.66;84.35;97143.00;29373;236;63009;-63
2021/12/23 00:46:27;;;;;;;0.70;0.70;;;;;;;-4.67;84.30;97145.84;29373;223;63004;-65
2021/12/23 00:46:58;;;;;;;0.70;0.70;;;;;;;-4.69;84.36;97145.22;29373;202;63009;-64
2021/12/23 00:47:30;;;;;;;0.70;0.70;;;;;;;-4.70;84.39;97140.91;29373;198;63004;-66
2021/12/23 00:48:01;;;;;;;0.60;0.60;;;;;;;-4.69;84.10;97142.56;29373;202;63008;-64
2021/12/23 00:48:35;;;;;;;0.70;0.70;;;;;;;-4.64;84.21;97140.16;29373;203;63008;-66
2021/12/23 00:49:07;;;;;;;0.70;0.70;;;;;;;-4.61;84.13;97145.09;29371;266;64014;-66
2021/12/23 00:49:40;;;;;;;0.70;0.70;;;;;;;-4.64;84.01;97140.97;29373;214;63005;-67
2021/12/23 00:50:12;;;;;;;0.70;0.70;;;;;;;-4.67;83.77;97132.59;29373;256;63015;-67
2021/12/23 00:50:44;;;;;;;0.70;0.70;;;;;;;-4.69;83.75;97131.97;29373;199;63005;-65
2021/12/23 00:51:15;;;;;;;0.70;0.70;;;;;;;-4.70;83.93;97135.63;29373;262;63009;-66
2021/12/23 00:51:47;;;;;;;0.70;0.70;;;;;;;-4.72;84.24;97128.69;29373;360;63004;-67
2021/12/23 00:52:25;;;;;;;0.70;0.70;;;;;;;-4.74;84.31;97124.59;29371;203;64013;-64
2021/12/23 00:52:59;;;;;;;0.70;0.70;;;;;;;-4.74;84.41;97132.53;29373;214;63004;-62
2021/12/23 00:53:36;;;;;;;1.00;1.00;;;;;;;-4.76;84.40;97122.13;29373;380;63009;-67
2021/12/23 00:54:08;;;;;;;0.70;0.70;;;;;;;-4.76;84.45;97132.72;29371;196;64008;-66
2021/12/23 00:54:39;;;;;;;3.62;1.02;;;;;;;-4.77;84.62;97128.44;29373;310;63012;-65
2021/12/23 00:55:11;;;;;;;0.70;0.70;;;;;;;-4.77;84.33;97131.09;29373;278;63004;-64
2021/12/23 00:55:45;;;;;;;0.70;0.70;;;;;;;-4.78;84.44;97134.75;29373;213;63009;-65
2021/12/23 00:56:16;;;;;;;0.70;0.70;;;;;;;-4.78;84.58;97134.75;29373;218;63005;-64
2021/12/23 00:56:50;;;;;;;1.02;1.02;;;;;;;-4.77;84.53;97130.28;29373;278;63009;-63
2021/12/23 00:57:27;;;;;;;0.70;0.70;;;;;;;-4.76;84.62;97137.22;29373;213;63015;-64
2021/12/23 00:57:59;;;;;;;0.70;0.70;;;;;;;-4.72;84.50;97133.16;29373;209;63009;-67
2021/12/23 00:58:31;;;;;;;0.70;0.70;;;;;;;-4.73;84.54;97131.53;29373;284;63005;-58
2021/12/23 00:59:10;;;;;;;0.70;0.70;;;;;;;-4.73;84.53;97129.69;29371;232;64013;-63
2021/12/23 00:59:41;;;;;;;0.70;0.70;;;;;;;-4.73;84.46;97135.00;29373;211;63004;-64
2021/12/23 01:00:20;;;;;;;0.70;0.70;;;;;;;-4.74;84.23;97125.41;29373;221;63009;-63
2021/12/23 01:00:52;;;;;;;0.70;0.70;;;;;;;-4.74;84.39;97125.41;29373;215;63004;-65
2021/12/23 01:01:23;;;;;;;1.10;0.85;;;;;;;-4.74;84.10;97129.88;29373;233;63009;-64
2021/12/23 01:01:55;;;;;;;1.12;1.00;;;;;;;-4.79;84.44;97127.81;29373;218;63004;-64
2021/12/23 01:02:30;;;;;;;0.70;0.70;;;;;;;-4.80;84.46;97126.19;29373;216;63009;-63
2021/12/23 01:03:03;;;;;;;0.70;0.70;;;;;;;-4.83;84.54;97126.56;29373;242;63005;-65
2021/12/23 01:03:34;;;;;;;0.95;0.95;;;;;;;-4.82;84.60;97128.19;29373;383;63009;-64
2021/12/23 01:04:06;;;;;;;1.33;1.23;;;;;;;-4.84;84.66;97139.97;29371;219;64009;-63
2021/12/23 01:04:37;;;;;;;0.70;0.70;;;;;;;-4.84;84.82;97139.97;29374;214;63009;-63
2021/12/23 01:05:10;;;;;;;0.85;0.85;;;;;;;-4.84;84.83;97138.16;29373;208;63005;-63
2021/12/23 01:05:42;;;;;;;0.70;0.70;;;;;;;-4.83;84.65;97147.72;29373;207;63009;-64
2021/12/23 01:06:14;;;;;;;0.70;0.70;;;;;;;-4.85;84.76;97139.16;29373;233;63005;-64
2021/12/23 01:06:45;;;;;;;0.70;0.70;;;;;;;-4.84;84.93;97135.50;29373;222;63009;-63
2021/12/23 01:07:16;;;;;;;0.82;0.82;;;;;;;-4.83;84.82;97137.13;29373;197;63004;-65
2021/12/23 01:07:48;;;;;;;0.70;0.70;;;;;;;-4.80;84.54;97130.66;29373;206;63025;-63
2021/12/23 01:08:20;;;;;;;0.70;0.70;;;;;;;-4.81;84.84;97123.72;29373;224;63004;-65
2021/12/23 01:08:51;;;;;;;0.70;0.70;;;;;;;-4.76;84.44;97126.63;29373;218;63009;-66
2021/12/23 01:09:23;;;;;;;8.70;5.75;;;;;;;-4.74;84.17;97130.72;29370;247;65008;-63
2021/12/23 01:09:55;;;;;;;0.80;0.80;;;;;;;-4.73;83.87;97123.59;29373;205;63009;-66
2021/12/23 01:10:27;;;;;;;0.70;0.70;;;;;;;-4.73;84.17;97119.13;29373;290;63005;-66
2021/12/23 01:11:00;;;;;;;0.70;0.70;;;;;;;-4.74;83.84;97121.94;29373;296;63009;-63
2021/12/23 01:11:31;;;;;;;0.70;0.70;;;;;;;-4.70;83.84;97125.03;29373;310;63005;-65
2021/12/23 01:12:03;;;;;;;0.70;0.70;;;;;;;-4.70;83.80;97125.84;29371;210;64013;-65
2021/12/23 01:12:43;;;;;;;0.70;0.70;;;;;;;-4.70;83.82;97117.91;29373;203;63005;-64
2021/12/23 01:13:14;;;;;;;0.70;0.70;;;;;;;-4.69;83.57;97126.69;29373;283;63028;-66
2021/12/23 01:14:01;;;;;;;0.70;0.70;;;;;;;-4.69;84.00;97137.25;29373;211;63005;-64
2021/12/23 01:14:42;;;;;;;0.80;0.80;;;;;;;-4.74;84.00;97130.72;29371;208;64013;-65
2021/12/23 01:15:27;;;;;;;0.80;0.80;;;;;;;-4.72;84.08;97126.03;29395;378;63004;-65
2021/12/23 01:16:05;;;;;;;0.80;0.80;;;;;;;-4.67;83.81;97129.94;29395;237;63015;-65
2021/12/23 01:16:48;;;;;;;0.70;0.70;;;;;;;-4.66;83.79;97132.41;29373;256;63004;-65
2021/12/23 01:17:42;;;;;;;0.70;0.70;;;;;;;-4.63;83.63;97125.91;29373;240;63017;-65
2021/12/23 01:18:19;;;;;;;0.70;0.70;;;;;;;-4.64;83.62;97124.28;29373;268;63005;-65
2021/12/23 01:18:54;;;;;;;0.70;0.70;;;;;;;-4.64;83.23;97126.94;29373;207;63009;-65
2021/12/23 01:19:26;;;;;;;0.70;0.70;;;;;;;-4.68;83.28;97129.13;29371;230;64009;-63
2021/12/23 01:20:01;;;;;;;0.70;0.70;;;;;;;-4.68;83.65;97128.31;29373;204;63021;-66
2021/12/23 01:20:36;;;;;;;0.70;0.70;;;;;;;-4.72;83.54;97122.56;29372;202;64005;-59
2021/12/23 01:21:16;;;;;;;0.70;0.70;;;;;;;-4.73;83.64;97121.75;29373;234;63009;-66
2021/12/23 01:21:47;;;;;;;0.70;0.70;;;;;;;-4.74;83.57;97130.72;29373;341;63004;-66
2021/12/23 01:22:19;;;;;;;0.80;0.80;;;;;;;-4.77;83.67;97125.78;29373;314;63018;-64
2021/12/23 01:22:50;;;;;;;0.70;0.70;;;;;;;-4.78;83.75;97129.44;29371;224;64009;-59
2021/12/23 01:23:23;;;;;;;1.25;1.25;;;;;;;-4.80;84.12;97123.53;29373;207;63009;-65
2021/12/23 01:23:58;;;;;;;0.70;0.70;;;;;;;-4.80;83.98;97123.53;29373;286;63004;-66
2021/12/23 01:24:33;;;;;;;0.70;0.70;;;;;;;-4.79;84.05;97119.87;29371;196;64013;-65
2021/12/23 01:25:05;;;;;;;0.80;0.80;;;;;;;-4.78;84.21;97121.50;29373;223;63018;-68
2021/12/23 01:25:38;;;;;;;0.80;0.80;;;;;;;-4.79;84.33;97133.09;29373;314;63009;-67
2021/12/23 01:26:11;;;;;;;0.70;0.70;;;;;;;-4.80;84.27;97122.72;29373;301;63005;-67
2021/12/23 01:26:43;;;;;;;0.70;0.70;;;;;;;-4.81;84.30;97124.53;29373;337;63009;-64
2021/12/23 01:27:15;;;;;;;0.90;0.90;;;;;;;-4.81;84.26;97129.84;29373;232;63005;-65
2021/12/23 01:27:46;;;;;;;0.73;0.73;;;;;;;-4.81;84.31;97126.38;29371;218;64013;-64
2021/12/23 01:28:18;;;;;;;0.70;0.70;;;;;;;-4.81;84.12;97119.25;29373;220;63005;-65
2021/12/23 01:28:58;;;;;;;0.70;0.70;;;;;;;-4.76;84.27;97122.13;29373;204;63009;-64
2021/12/23 01:29:29;;;;;;;0.70;0.70;;;;;;;-4.75;84.19;97126.44;29373;202;63004;-66
2021/12/23 01:30:02;;;;;;;0.70;0.70;;;;;;;-4.74;83.81;97120.13;29373;209;63009;-64
2021/12/23 01:30:37;;;;;;;0.70;0.70;;;;;;;-4.73;83.96;97116.47;29373;224;63004;-65
2021/12/23 01:31:09;;;;;;;1.75;1.65;;;;;;;-4.65;83.67;97125.28;29373;363;63009;-60
2021/12/23 01:31:43;;;;;;;0.70;0.70;;;;;;;-4.63;83.27;97121.44;29373;196;63004;-66
2021/12/23 01:32:14;;;;;;;0.70;0.70;;;;;;;-4.64;83.24;97111.03;29371;222;64022;-64
2021/12/23 01:32:49;;;;;;;0.70;0.70;;;;;;;-4.67;83.37;97111.41;29373;225;63005;-65
2021/12/23 01:33:23;;;;;;;0.70;0.70;;;;;;;-4.69;83.26;97108.16;29373;202;63009;-66
2021/12/23 01:33:56;;;;;;;0.90;0.90;;;;;;;-4.70;83.37;97115.28;29373;215;63005;-65
2021/12/23 01:34:27;;;;;;;0.70;0.70;;;;;;;-4.71;83.72;97108.34;29373;227;63009;-65
2021/12/23 01:34:58;;;;;;;0.70;0.70;;;;;;;-4.69;83.70;97108.16;29373;321;63005;-65
2021/12/23 01:35:29;;;;;;;0.70;0.70;;;;;;;-4.70;83.83;97109.97;29373;279;63009;-66
2021/12/23 01:36:00;;;;;;;0.70;0.70;;;;;;;-4.72;83.64;97112.81;29373;214;63004;-66
2021/12/23 01:36:40;;;;;;;0.70;0.70;;;;;;;-4.69;83.84;97105.50;29373;214;63009;-65
2021/12/23 01:37:11;;;;;;;0.70;0.70;;;;;;;-4.72;83.65;97102.22;29371;224;63999;-64
2021/12/23 01:37:43;;;;;;;0.70;0.70;;;;;;;-4.73;83.73;97105.88;29373;203;63009;-66
2021/12/23 01:38:15;;;;;;;0.70;0.70;;;;;;;-4.72;83.70;97099.56;29371;375;64009;-67
2021/12/23 01:38:46;;;;;;;0.70;0.70;;;;;;;-4.70;84.04;97106.50;29373;331;63008;-67
2021/12/23 01:39:17;;;;;;;0.70;0.70;;;;;;;-4.70;83.89;97104.69;29373;230;63004;-59
2021/12/23 01:39:50;;;;;;;0.70;0.70;;;;;;;-4.72;83.80;97104.87;29373;230;63017;-65
2021/12/23 01:40:26;;;;;;;0.70;0.70;;;;;;;-4.68;83.62;97101.84;29373;394;63005;-63
2021/12/23 01:40:57;;;;;;;0.70;0.70;;;;;;;-4.66;83.48;97099.81;29373;228;63009;-65
2021/12/23 01:41:28;;;;;;;0.70;0.70;;;;;;;-4.66;83.36;97095.34;29373;224;63005;-66
2021/12/23 01:42:00;;;;;;;0.70;0.70;;;;;;;-4.64;83.46;97097.81;29373;211;63009;-65
2021/12/23 01:42:31;;;;;;;0.70;0.70;;;;;;;-4.63;83.38;97094.16;29373;208;63005;-66
2021/12/23 01:43:04;;;;;;;0.70;0.70;;;;;;;-4.64;83.52;97090.69;29373;202;63009;-65
2021/12/23 01:43:36;;;;;;;0.70;0.70;;;;;;;-4.63;83.57;97096.78;29371;224;64009;-66
2021/12/23 01:44:07;;;;;;;0.70;0.70;;;;;;;-4.63;83.52;97092.31;29371;324;64013;-65
2021/12/23 01:44:38;;;;;;;0.70;0.70;;;;;;;-4.61;83.63;97086.84;29373;197;63004;-66
2021/12/23 01:45:13;;;;;;;0.70;0.70;;;;;;;-4.58;83.68;97086.44;29373;244;63009;-66
2021/12/23 01:45:47;;;;;;;0.70;0.70;;;;;;;-4.58;83.40;97091.75;29373;198;63011;-66
2021/12/23 01:46:19;;;;;;;0.70;0.70;;;;;;;-4.57;83.42;97088.91;29373;203;63008;-66
2021/12/23 01:46:50;;;;;;;0.70;0.70;;;;;;;-4.58;83.30;97086.44;29373;198;63005;-65
2021/12/23 01:47:22;;;;;;;0.70;0.70;;;;;;;-4.61;83.37;97089.47;29371;207;64014;-65
2021/12/23 01:47:54;;;;;;;0.70;0.70;;;;;;;-4.60;83.20;97083.16;29373;256;63005;-67
2021/12/23 01:48:26;;;;;;;0.70;0.70;;;;;;;-4.60;83.46;97083.16;29372;277;63009;-69
2021/12/23 01:48:57;;;;;;;1.35;1.35;;;;;;;-4.62;83.15;97085.19;29373;392;63005;-64
2021/12/23 01:49:28;;;;;;;0.70;0.70;;;;;;;-4.61;83.36;97089.47;29371;215;64013;-67
2021/12/23 01:50:00;;;;;;;0.70;0.70;;;;;;;-4.62;83.15;97085.19;29373;396;63005;-65
2021/12/23 01:50:34;;;;;;;0.70;0.70;;;;;;;-4.58;83.26;97081.16;29373;282;63009;-65
2021/12/23 01:51:06;;;;;;;0.70;0.70;;;;;;;-4.54;82.77;97077.94;29373;202;63004;-65
2021/12/23 01:51:38;;;;;;;0.70;0.70;;;;;;;-4.53;82.59;97074.28;29373;323;63009;-64
2021/12/23 01:52:09;;;;;;;0.80;0.80;;;;;;;-4.52;82.50;97080.38;29373;335;63004;-65
2021/12/23 01:52:41;;;;;;;0.70;0.70;;;;;;;-4.51;82.36;97079.38;29373;216;63009;-64
2021/12/23 01:53:13;;;;;;;0.70;0.70;;;;;;;-4.53;82.67;97078.75;29373;299;63004;-67
2021/12/23 01:53:45;;;;;;;0.70;0.70;;;;;;;-4.54;82.60;97075.28;29373;209;63008;-66
2021/12/23 01:54:17;;;;;;;1.00;1.00;;;;;;;-4.49;82.47;97077.31;29373;219;63004;-65
2021/12/23 01:54:48;;;;;;;0.70;0.70;;;;;;;-4.49;82.10;97077.31;29371;229;64014;-60
2021/12/23 01:55:19;;;;;;;0.70;0.70;;;;;;;-4.52;82.25;97078.56;29373;223;63005;-64
2021/12/23 01:55:50;;;;;;;0.70;0.70;;;;;;;-4.52;82.04;97077.72;29373;318;63009;-69
2021/12/23 01:56:25;;;;;;;0.70;0.70;;;;;;;-4.53;82.13;97089.34;29373;221;63005;-64
2021/12/23 01:56:57;;;;;;;0.70;0.70;;;;;;;-4.54;82.36;97090.34;29373;206;63009;-60
2021/12/23 01:57:32;;;;;;;0.70;0.70;;;;;;;-4.53;82.26;97084.03;29371;315;64009;-67
2021/12/23 01:58:05;;;;;;;0.70;0.70;;;;;;;-4.53;82.43;97084.03;29373;304;63014;-58
2021/12/23 01:58:41;;;;;;;0.80;0.80;;;;;;;-4.53;82.10;97084.88;29373;224;63004;-66
2021/12/23 01:59:12;;;;;;;0.80;0.80;;;;;;;-4.53;82.18;97078.75;29373;198;63009;-65
2021/12/23 01:59:44;;;;;;;0.70;0.70;;;;;;;-4.55;81.89;97081.59;29371;212;64009;-65
2021/12/23 02:00:18;;;;;;;0.70;0.70;;;;;;;-4.56;82.24;97079.13;29373;219;63009;-64
2021/12/23 02:00:52;;;;;;;0.70;0.70;;;;;;;-4.58;82.11;97083.78;29373;206;63004;-66
2021/12/23 02:01:24;;;;;;;0.70;0.70;;;;;;;-4.59;82.14;97076.88;29373;216;63008;-67
2021/12/23 02:01:55;;;;;;;0.70;0.70;;;;;;;-4.58;82.32;97086.44;29373;197;63005;-67
2021/12/23 02:02:27;;;;;;;0.70;0.70;;;;;;;-4.58;82.32;97073.22;29373;205;63009;-66
2021/12/23 02:02:59;;;;;;;0.70;0.70;;;;;;;-4.57;82.23;97066.91;29373;230;63005;-65
2021/12/23 02:03:30;;;;;;;0.70;0.70;;;;;;;-4.56;82.55;97071.19;29373;203;63009;-66
2021/12/23 02:04:01;;;;;;;0.70;0.70;;;;;;;-4.54;82.34;97071.81;29371;217;64009;-67
2021/12/23 02:04:32;;;;;;;0.70;0.70;;;;;;;-4.50;82.19;97067.75;29373;222;63009;-66
2021/12/23 02:05:05;;;;;;;0.70;0.70;;;;;;;-4.49;82.02;97069.38;29372;225;64005;-67
2021/12/23 02:05:36;;;;;;;0.70;0.70;;;;;;;-4.48;82.14;97071.00;29373;205;63009;-65
2021/12/23 02:06:09;;;;;;;0.70;0.70;;;;;;;-4.49;81.82;97067.53;29371;224;64009;-63
2021/12/23 02:06:40;;;;;;;0.70;0.70;;;;;;;-4.51;81.90;97066.13;29373;287;63009;-65
2021/12/23 02:07:11;;;;;;;0.70;0.70;;;;;;;-4.51;81.78;97066.13;29373;374;63004;-67
2021/12/23 02:07:42;;;;;;;0.70;0.70;;;;;;;-4.51;81.54;97066.13;29373;282;63004;-65
2021/12/23 02:08:14;;;;;;;0.70;0.70;;;;;;;-4.54;81.43;97063.88;29373;298;63004;-65
2021/12/23 02:08:45;;;;;;;0.70;0.70;;;;;;;-4.55;81.66;97057.75;29373;217;63008;-66
2021/12/23 02:09:18;;;;;;;0.70;0.70;;;;;;;-4.52;82.05;97064.50;29371;249;64008;-59
2021/12/23 02:09:49;;;;;;;0.70;0.70;;;;;;;-4.53;81.66;97062.84;29373;226;63009;-64
2021/12/23 02:10:20;;;;;;;0.70;0.70;;;;;;;-4.51;82.01;97060.84;29373;223;63005;-65
2021/12/23 02:10:55;;;;;;;0.70;0.70;;;;;;;-4.48;81.90;97055.12;29373;212;63024;-69
2021/12/23 02:11:26;;;;;;;0.70;0.70;;;;;;;-4.44;81.44;97061.66;29373;206;63005;-66
2021/12/23 02:12:01;;;;;;;0.70;0.70;;;;;;;-4.46;81.15;97058.41;29373;202;63026;-66
2021/12/23 02:12:33;;;;;;;0.70;0.70;;;;;;;-4.46;81.06;97069.00;29373;203;63010;-67
2021/12/23 02:13:04;;;;;;;0.70;0.70;;;;;;;-4.46;81.22;97053.09;29373;199;63009;-64
2021/12/23 02:13:36;;;;;;;0.70;0.70;;;;;;;-4.47;81.17;97051.47;29373;202;63005;-65
2021/12/23 02:14:08;;;;;;;0.70;0.70;;;;;;;-4.47;81.40;97051.47;29373;228;63018;-64
2021/12/23 02:14:40;;;;;;;0.70;0.70;;;;;;;-4.47;81.22;97051.47;29371;214;64009;-65
2021/12/23 02:15:13;;;;;;;0.80;0.80;;;;;;;-4.46;81.23;97050.44;29373;203;63009;-65
2021/12/23 02:15:44;;;;;;;0.85;0.85;;;;;;;-4.48;81.35;97049.81;29373;202;63004;-65
2021/12/23 02:16:15;;;;;;;0.70;0.70;;;;;;;-4.50;81.52;97050.00;29373;282;63008;-65
2021/12/23 02:16:46;;;;;;;0.70;0.70;;;;;;;-4.51;81.51;97055.53;29371;196;64008;-66
2021/12/23 02:17:17;;;;;;;0.70;0.70;;;;;;;-4.51;81.22;97050.25;29373;372;63025;-66
2021/12/23 02:17:50;;;;;;;0.70;0.70;;;;;;;-4.52;81.44;97048.59;29373;221;63019;-64
2021/12/23 02:18:21;;;;;;;0.70;0.70;;;;;;;-4.56;81.34;97044.69;29373;203;63009;-66
2021/12/23 02:18:52;;;;;;;0.70;0.70;;;;;;;-4.55;81.34;97049.81;29373;256;63005;-65
2021/12/23 02:19:24;;;;;;;0.70;0.70;;;;;;;-4.55;81.54;97049.00;29373;219;63009;-64
2021/12/23 02:19:56;;;;;;;0.70;0.70;;;;;;;-4.55;81.57;97054.28;29373;253;63011;-66
2021/12/23 02:20:33;;;;;;;0.70;0.70;;;;;;;-4.56;81.65;97042.06;29373;202;63009;-65
2021/12/23 02:21:06;;;;;;;0.80;0.80;;;;;;;-4.56;81.61;97050.81;29373;202;63004;-64
2021/12/23 02:21:42;;;;;;;0.70;0.70;;;;;;;-4.55;81.79;97049.00;29371;223;64013;-64
2021/12/23 02:22:13;;;;;;;0.70;0.70;;;;;;;-4.57;81.43;97045.72;29371;210;64009;-65
2021/12/23 02:22:45;;;;;;;0.70;0.70;;;;;;;-4.57;81.65;97051.84;29373;214;63009;-65
2021/12/23 02:23:16;;;;;;;1.60;1.50;;;;;;;-4.57;81.56;97051.00;29371;357;64008;-58
2021/12/23 02:23:47;;;;;;;0.70;0.70;;;;;;;-4.59;81.60;97048.56;29373;211;63008;-65
2021/12/23 02:24:19;;;;;;;0.70;0.70;;;;;;;-4.61;81.78;97045.28;29373;214;63004;-63
2021/12/23 02:24:50;;;;;;;0.70;0.70;;;;;;;-4.61;81.74;97047.09;29373;216;63009;-59
2021/12/23 02:25:22;;;;;;;0.70;0.70;;;;;;;-4.64;81.92;97039.56;29373;216;63005;-65
2021/12/23 02:25:53;;;;;;;0.70;0.70;;;;;;;-4.65;81.71;97043.22;29371;213;64013;-66
2021/12/23 02:26:24;;;;;;;1.40;1.30;;;;;;;-4.65;81.99;97043.22;29373;209;63007;-64
2021/12/23 02:26:55;;;;;;;0.70;0.70;;;;;;;-4.63;81.78;97043.84;29373;367;63009;-66
2021/12/23 02:27:27;;;;;;;0.70;0.70;;;;;;;-4.61;81.64;97042.63;29373;197;63005;-64
2021/12/23 02:28:04;;;;;;;0.70;0.70;;;;;;;-4.61;81.75;97042.63;29373;362;63019;-63
2021/12/23 02:28:35;;;;;;;0.70;0.70;;;;;;;-4.61;81.48;97040.00;29373;259;63004;-64
2021/12/23 02:29:08;;;;;;;0.70;0.70;;;;;;;-4.60;81.71;97040.81;29373;260;63009;-64
2021/12/23 02:29:39;;;;;;;0.70;0.70;;;;;;;-4.60;81.72;97040.81;29373;279;63004;-66
2021/12/23 02:30:17;;;;;;;0.70;0.70;;;;;;;-4.57;81.69;97037.78;29373;215;63009;-64
2021/12/23 02:30:51;;;;;;;0.80;0.80;;;;;;;-4.54;81.27;97034.75;29371;275;64008;-60
2021/12/23 02:31:22;;;;;;;0.80;0.80;;;;;;;-4.52;81.05;97038.00;29373;211;63009;-64
2021/12/23 02:31:54;;;;;;;0.70;0.70;;;;;;;-4.56;81.09;97036.75;29373;205;63005;-59
2021/12/23 02:32:25;;;;;;;0.80;0.80;;;;;;;-4.53;81.10;97037.19;29371;231;64030;-65
2021/12/23 02:32:57;;;;;;;0.80;0.80;;;;;;;-4.53;80.72;97041.66;29373;202;63005;-66
2021/12/23 02:33:29;;;;;;;0.80;0.80;;;;;;;-4.56;80.78;97042.88;29373;196;63009;-63
2021/12/23 02:34:01;;;;;;;0.70;0.70;;;;;;;-4.59;80.83;97035.31;29373;214;63005;-66
2021/12/23 02:34:32;;;;;;;0.90;0.90;;;;;;;-4.62;81.00;97037.53;29373;208;63009;-63
2021/12/23 02:35:06;;;;;;;0.70;0.70;;;;;;;-4.67;80.86;97038.09;29373;222;63005;-64
2021/12/23 02:35:38;;;;;;;0.70;0.70;;;;;;;-4.67;81.41;97039.94;29373;195;63017;-64
2021/12/23 02:36:11;;;;;;;3.40;3.10;;;;;;;-4.68;81.52;97044.41;29373;235;63004;-65
2021/12/23 02:36:59;;;;;;;0.70;0.70;;;;;;;-4.71;81.40;97039.50;29373;318;63009;-64
2021/12/23 02:37:33;;;;;;;0.80;0.80;;;;;;;-4.72;81.54;97037.88;29371;214;64009;-64
2021/12/23 02:38:05;;;;;;;0.70;0.70;;;;;;;-4.73;81.58;97034.41;29373;203;63008;-63
2021/12/23 02:38:36;;;;;;;0.80;0.80;;;;;;;-4.76;81.76;97034.78;29373;218;63004;-64
2021/12/23 02:39:08;;;;;;;0.70;0.70;;;;;;;-4.75;81.59;97031.13;29373;352;63009;-64
2021/12/23 02:39:40;;;;;;;0.98;0.98;;;;;;;-4.76;81.87;97034.78;29373;222;63005;-64
2021/12/23 02:40:21;;;;;;;1.27;1.23;;;;;;;-4.77;81.80;97038.44;29371;317;64014;-63
2021/12/23 02:40:53;;;;;;;0.80;0.80;;;;;;;-4.78;81.76;97022.75;29395;197;63005;-59
2021/12/23 02:41:26;;;;;;;0.80;0.80;;;;;;;-4.80;81.90;97030.88;29395;205;63009;-66
2021/12/23 02:41:57;;;;;;;0.70;0.70;;;;;;;-4.78;82.25;97026.22;29373;343;63005;-64
2021/12/23 02:42:28;;;;;;;0.77;0.77;;;;;;;-4.77;81.86;97030.50;29373;218;63009;-65
2021/12/23 02:43:19;;;;;;;2.75;2.55;;;;;;;-4.71;81.57;97028.91;29373;211;63004;-64
2021/12/23 02:43:50;;;;;;;0.70;0.70;;;;;;;-4.66;81.11;97021.22;29371;212;64013;-64